Impacts TAF Board
For situational awareness. Not to be used for flight planning purposes.
IDs:

KCLL - College Station/East, TX, US

Issued at 0520 UTC 19 Aug 2019
Updated at 0525 UTC 19 Aug 2019
Potential Impact None Slight Moderate High
Time<<19/18Z 19/19Z 19/20Z 19/21Z 19/22Z 19/23Z 20/00Z 20/01Z 20/02Z 20/03Z 20/04Z 20/05Z 20/06Z>>
Type PRVL PRVL PRVL PRVL PRVL PRVL PRVL PRVL PRVL PRVL PRVL PRVL
VIS >6 >6 >6 >6 >6 >6 >6 >6 >6 >6 >6 >6
CIG -- -- -- -- -- -- -- -- -- -- -- --
Cover SCT SCT SCT SCT SCT SCT SCT SCT SKC SKC SKC SKC
FltCat VFR VFR VFR VFR VFR VFR VFR VFR VFR VFR VFR VFR
WX -- -- -- -- -- -- -- -- -- -- -- --
WDir 190 190 190 160 160 160 160 160 160 160 160 160
WSpd 9 9 9 8 8 8 8 8 6 6 6 6
WGst -- -- -- -- -- -- -- -- -- -- -- --
Raw TAF
KCLL 190520Z 1906/2006 17009KT P6SM SKC
  FM190900 17005KT P6SM FEW025
  FM191300 18005KT P6SM BKN025
  FM191500 19009KT P6SM SCT045
  FM192100 16008KT P6SM SCT060
  FM200200 16006KT P6SM SKC


METAR Board
Radar Display
Forecast Discussion
For situational awareness. Not to be used for flight planning purposes.